createdAt,value
2023-04-23T00:00:12.401Z,26.84
2023-04-23T00:01:12.476Z,26.94
2023-04-23T00:02:12.509Z,27.03
2023-04-23T00:03:19.396Z,27.06
2023-04-23T00:04:12.610Z,27.13
2023-04-23T00:05:12.506Z,27.19
2023-04-23T00:06:12.479Z,27.22
2023-04-23T00:07:12.424Z,27.26
2023-04-23T00:08:12.478Z,27.26
2023-04-23T00:09:12.448Z,27.22
2023-04-23T00:10:12.483Z,27.22
2023-04-23T00:11:12.440Z,27.25
2023-04-23T00:12:12.380Z,27.30
2023-04-23T00:13:12.441Z,27.29
2023-04-23T00:14:12.473Z,27.26
2023-04-23T00:15:12.390Z,27.28
2023-04-23T00:16:12.408Z,27.29
2023-04-23T00:17:12.432Z,27.24
2023-04-23T00:18:12.355Z,27.22
2023-04-23T00:19:12.368Z,27.23
2023-04-23T00:20:12.379Z,27.20
2023-04-23T00:21:12.381Z,27.14
2023-04-23T00:22:12.347Z,27.12
2023-04-23T00:23:12.364Z,27.17
2023-04-23T00:24:12.356Z,27.12
2023-04-23T00:25:12.310Z,27.11
2023-04-23T00:26:12.311Z,27.09
2023-04-23T00:27:12.300Z,27.08
2023-04-23T00:28:12.287Z,27.12
2023-04-23T00:29:12.278Z,27.14
2023-04-23T00:30:12.298Z,27.14
2023-04-23T00:31:12.288Z,27.26
2023-04-23T00:32:12.318Z,27.28
2023-04-23T00:33:12.330Z,27.30
2023-04-23T00:34:12.225Z,27.35
2023-04-23T00:35:12.289Z,27.36
2023-04-23T00:36:12.210Z,27.31
2023-04-23T00:37:12.250Z,27.25
2023-04-23T00:38:12.240Z,27.23
2023-04-23T00:39:12.236Z,27.26
2023-04-23T00:40:12.302Z,27.31
2023-04-23T00:41:12.361Z,27.33
2023-04-23T00:42:12.479Z,27.31
2023-04-23T00:43:12.500Z,27.26
2023-04-23T00:44:12.474Z,27.26
2023-04-23T00:45:12.620Z,27.26
2023-04-23T00:46:12.670Z,27.29
2023-04-23T00:47:12.679Z,27.28
2023-04-23T00:48:12.779Z,27.32
2023-04-23T00:49:12.797Z,27.37
2023-04-23T00:50:12.886Z,27.38
2023-04-23T00:51:12.920Z,27.41
2023-04-23T00:52:12.929Z,27.47
2023-04-23T00:53:13.125Z,27.44
2023-04-23T00:54:13.048Z,27.42
2023-04-23T00:55:13.135Z,27.41
2023-04-23T00:56:13.167Z,27.47
2023-04-23T00:57:13.250Z,27.51
2023-04-23T00:58:13.305Z,27.55
2023-04-23T00:59:13.382Z,27.55
2023-04-23T01:00:13.471Z,27.55
2023-04-23T01:01:13.569Z,27.58
2023-04-23T01:02:13.621Z,27.60
2023-04-23T01:03:13.773Z,27.62
2023-04-23T01:04:13.761Z,27.65
2023-04-23T01:05:13.724Z,27.66
2023-04-23T01:06:14.260Z,27.75
2023-04-23T01:07:13.857Z,27.82
2023-04-23T01:08:13.927Z,27.85
2023-04-23T01:09:13.981Z,27.84
2023-04-23T01:10:14.029Z,27.84
2023-04-23T01:11:14.101Z,27.87
2023-04-23T01:12:14.163Z,27.92
2023-04-23T01:13:14.263Z,27.98
2023-04-23T01:14:14.279Z,28.02
2023-04-23T01:15:14.360Z,28.02
2023-04-23T01:16:14.394Z,28.03
2023-04-23T01:17:14.469Z,28.01
2023-04-23T01:18:14.589Z,28.04
2023-04-23T01:19:14.622Z,28.06
2023-04-23T01:20:14.668Z,28.02
2023-04-23T01:21:14.746Z,28.02
2023-04-23T01:22:14.795Z,28.03
2023-04-23T01:23:14.824Z,28.05
2023-04-23T01:24:14.856Z,28.10
2023-04-23T01:25:14.913Z,28.13
2023-04-23T01:26:14.997Z,28.21
2023-04-23T01:27:15.045Z,28.24
2023-04-23T01:28:15.140Z,28.30
2023-04-23T01:29:15.196Z,28.33
2023-04-23T01:30:15.247Z,28.36
2023-04-23T01:31:15.336Z,28.37
2023-04-23T01:32:15.371Z,28.38
2023-04-23T01:33:15.435Z,28.41
2023-04-23T01:34:15.431Z,28.41
2023-04-23T01:35:15.500Z,28.41
2023-04-23T01:36:15.513Z,28.39
2023-04-23T01:37:15.494Z,28.37
2023-04-23T01:38:15.535Z,28.38
2023-04-23T01:39:15.538Z,28.41
2023-04-23T01:40:15.543Z,28.45
2023-04-23T01:41:15.533Z,28.46
2023-04-23T01:42:15.586Z,28.49
2023-04-23T01:43:15.609Z,28.56
2023-04-23T01:44:15.599Z,28.58
2023-04-23T01:45:15.674Z,28.62
2023-04-23T01:46:15.711Z,28.65
2023-04-23T01:47:15.739Z,28.65
2023-04-23T01:48:15.756Z,28.67
2023-04-23T01:49:15.772Z,28.68
2023-04-23T01:50:15.872Z,28.71
2023-04-23T01:51:15.853Z,28.71
2023-04-23T01:52:15.928Z,28.77
2023-04-23T01:53:16.046Z,28.79
2023-04-23T01:54:15.979Z,28.81
2023-04-23T01:55:16.001Z,28.81
2023-04-23T01:56:16.006Z,28.89
2023-04-23T01:57:16.055Z,28.89
2023-04-23T01:58:16.129Z,28.94
2023-04-23T01:59:16.045Z,29.00
2023-04-23T02:00:16.046Z,28.95
2023-04-23T02:01:16.132Z,28.98
2023-04-23T02:02:16.112Z,28.95
2023-04-23T02:03:16.273Z,28.97
2023-04-23T02:04:16.189Z,28.98
2023-04-23T02:05:16.123Z,28.96
2023-04-23T02:06:16.109Z,28.94
2023-04-23T02:07:16.181Z,28.92
2023-04-23T02:08:16.192Z,28.97
2023-04-23T02:09:16.183Z,29.01
2023-04-23T02:10:16.158Z,29.02
2023-04-23T02:11:16.206Z,29.02
2023-04-23T02:12:16.171Z,29.02
2023-04-23T02:13:16.168Z,28.99
2023-04-23T02:14:16.180Z,28.99
2023-04-23T02:15:16.289Z,28.93
2023-04-23T02:16:16.215Z,28.91
2023-04-23T02:17:16.169Z,28.95
2023-04-23T02:18:16.204Z,28.90
2023-04-23T02:19:16.206Z,28.91
2023-04-23T02:20:16.193Z,28.90
2023-04-23T02:21:16.229Z,28.92
2023-04-23T02:22:16.272Z,28.89
2023-04-23T02:23:16.281Z,28.83
2023-04-23T02:24:16.241Z,28.83
2023-04-23T02:25:16.278Z,28.79
2023-04-23T02:26:16.268Z,28.81
2023-04-23T02:27:16.319Z,28.80
2023-04-23T02:28:16.313Z,28.78
2023-04-23T02:29:16.322Z,28.81
2023-04-23T02:30:16.332Z,28.76
2023-04-23T02:31:16.351Z,28.78
2023-04-23T02:32:16.401Z,28.76
2023-04-23T02:33:16.421Z,28.74
2023-04-23T02:34:16.413Z,28.69
2023-04-23T02:35:16.514Z,28.70
2023-04-23T02:36:16.468Z,28.70
2023-04-23T02:37:16.473Z,28.69
2023-04-23T02:38:16.556Z,28.66
2023-04-23T02:39:16.766Z,28.68
2023-04-23T02:40:16.563Z,28.63
2023-04-23T02:41:16.546Z,28.64
2023-04-23T02:42:16.540Z,28.64
2023-04-23T02:43:16.577Z,28.66
2023-04-23T02:44:16.601Z,28.65
2023-04-23T02:45:16.597Z,28.68
2023-04-23T02:46:16.689Z,28.68
2023-04-23T02:47:16.611Z,28.63
2023-04-23T02:48:16.613Z,28.73
2023-04-23T02:49:16.656Z,28.75
2023-04-23T02:50:16.672Z,28.72
2023-04-23T02:51:16.710Z,28.68
2023-04-23T02:52:16.807Z,28.68
2023-04-23T02:53:16.790Z,28.69
2023-04-23T02:54:16.805Z,28.69
2023-04-23T02:55:16.808Z,28.70
2023-04-23T02:56:16.811Z,28.70
2023-04-23T02:57:16.983Z,28.63
2023-04-23T02:58:16.886Z,28.63
2023-04-23T02:59:17.247Z,28.59
2023-04-23T03:00:16.962Z,28.60
2023-04-23T03:01:17.011Z,28.55
2023-04-23T03:02:17.034Z,28.57
2023-04-23T03:03:17.080Z,28.58
2023-04-23T03:04:16.984Z,28.59
2023-04-23T03:05:16.935Z,28.57
2023-04-23T03:06:16.982Z,28.57
2023-04-23T03:07:16.989Z,28.57
2023-04-23T03:08:17.002Z,28.57
2023-04-23T03:09:16.996Z,28.59
2023-04-23T03:10:17.722Z,28.68
2023-04-23T03:11:17.081Z,28.70
2023-04-23T03:12:17.081Z,28.72
2023-04-23T03:13:17.138Z,28.75
2023-04-23T03:14:17.139Z,28.78
2023-04-23T03:15:17.198Z,28.79
2023-04-23T03:16:17.204Z,28.82
2023-04-23T03:17:17.269Z,28.73
2023-04-23T03:18:17.270Z,28.74
2023-04-23T03:19:17.276Z,28.78
2023-04-23T03:20:17.310Z,28.81
2023-04-23T03:21:17.333Z,28.82
2023-04-23T03:22:17.353Z,28.83
2023-04-23T03:23:17.400Z,28.90
2023-04-23T03:24:17.407Z,28.94
2023-04-23T03:25:17.407Z,28.99
2023-04-23T03:26:17.463Z,29.00
2023-04-23T03:27:17.488Z,29.03
2023-04-23T03:28:17.544Z,29.06
2023-04-23T03:29:17.534Z,29.11
2023-04-23T03:30:17.600Z,29.14
2023-04-23T03:31:17.715Z,29.18
2023-04-23T03:32:17.634Z,29.19
2023-04-23T03:33:17.628Z,29.24
2023-04-23T03:34:17.680Z,29.18
2023-04-23T03:35:17.692Z,29.23
2023-04-23T03:36:17.744Z,29.19
2023-04-23T03:37:17.765Z,29.22
2023-04-23T03:38:17.878Z,29.29
2023-04-23T03:39:17.862Z,29.31
2023-04-23T03:40:17.877Z,29.35
2023-04-23T03:41:17.961Z,29.36
2023-04-23T03:42:17.996Z,29.34
2023-04-23T03:43:18.003Z,29.33
2023-04-23T03:44:18.080Z,29.27
2023-04-23T03:45:18.081Z,29.29
2023-04-23T03:46:18.226Z,29.31
2023-04-23T03:47:18.311Z,29.34
2023-04-23T03:48:18.282Z,29.38
2023-04-23T03:49:18.251Z,29.32
2023-04-23T03:50:18.721Z,29.32
2023-04-23T03:51:18.304Z,29.34
2023-04-23T03:52:18.379Z,29.37
2023-04-23T03:53:18.386Z,29.41
2023-04-23T03:54:18.432Z,29.46
2023-04-23T03:55:18.389Z,29.52
2023-04-23T03:56:18.455Z,29.57
2023-04-23T03:57:18.446Z,29.63
2023-04-23T03:58:18.516Z,29.60
2023-04-23T03:59:18.513Z,29.48
2023-04-23T04:00:18.579Z,29.49
2023-04-23T04:01:18.679Z,29.49
2023-04-23T04:02:18.800Z,29.53
2023-04-23T04:03:18.878Z,29.56
2023-04-23T04:04:19.058Z,29.56
2023-04-23T04:05:18.824Z,29.58
2023-04-23T04:06:18.822Z,29.58
2023-04-23T04:07:18.788Z,29.59
2023-04-23T04:08:18.801Z,29.54
2023-04-23T04:09:18.850Z,29.54
2023-04-23T04:10:18.846Z,29.54
2023-04-23T04:11:18.919Z,29.55
2023-04-23T04:12:19.300Z,29.56
2023-04-23T04:13:18.977Z,29.62
2023-04-23T04:14:19.004Z,29.64
2023-04-23T04:15:19.057Z,29.65
2023-04-23T04:16:19.117Z,29.65
2023-04-23T04:17:19.131Z,29.69
2023-04-23T04:18:19.170Z,29.70
2023-04-23T04:19:19.179Z,29.62
2023-04-23T04:20:19.190Z,29.71
2023-04-23T04:21:19.178Z,29.75
2023-04-23T04:22:19.235Z,29.72
2023-04-23T04:23:19.254Z,29.72
2023-04-23T04:24:19.314Z,29.80
2023-04-23T04:25:19.364Z,29.81
2023-04-23T04:26:19.370Z,29.87
2023-04-23T04:27:19.436Z,29.89
2023-04-23T04:28:19.428Z,29.93
2023-04-23T04:29:19.450Z,30.05
2023-04-23T04:30:19.507Z,30.16
2023-04-23T04:31:19.533Z,30.23
2023-04-23T04:32:19.582Z,30.36
2023-04-23T04:33:19.538Z,30.42
2023-04-23T04:34:19.626Z,30.46
2023-04-23T04:35:19.692Z,30.54
2023-04-23T04:36:19.673Z,30.57
2023-04-23T04:37:19.743Z,30.58
2023-04-23T04:38:19.755Z,30.63
2023-04-23T04:39:19.808Z,30.64
2023-04-23T04:40:19.889Z,30.67
2023-04-23T04:41:19.883Z,30.78
2023-04-23T04:42:19.941Z,30.85
2023-04-23T04:43:19.986Z,30.87
2023-04-23T04:44:20.040Z,30.94
2023-04-23T04:45:20.065Z,30.97
2023-04-23T04:46:20.122Z,30.91
2023-04-23T04:47:20.153Z,30.87
2023-04-23T04:48:20.178Z,30.83
2023-04-23T04:49:20.159Z,30.80
2023-04-23T04:50:20.244Z,30.71
2023-04-23T04:51:20.255Z,30.64
2023-04-23T04:52:20.298Z,30.59
2023-04-23T04:53:20.723Z,30.56
2023-04-23T04:54:20.367Z,30.56
2023-04-23T04:55:20.490Z,30.61
2023-04-23T04:56:20.433Z,30.65
2023-04-23T04:57:20.490Z,30.67
2023-04-23T04:58:20.493Z,30.70
2023-04-23T04:59:20.575Z,30.68
2023-04-23T05:00:20.534Z,30.63
2023-04-23T05:01:20.693Z,30.63
2023-04-23T05:02:20.782Z,30.59
2023-04-23T05:03:20.802Z,30.56
2023-04-23T05:04:20.769Z,30.61
2023-04-23T05:05:20.757Z,30.55
2023-04-23T05:06:20.813Z,30.56
2023-04-23T05:07:20.937Z,30.52
2023-04-23T05:08:20.886Z,30.52
2023-04-23T05:09:20.986Z,30.52
2023-04-23T05:10:20.980Z,30.50
2023-04-23T05:11:21.071Z,30.47
2023-04-23T05:12:21.097Z,30.51
2023-04-23T05:13:21.175Z,30.53
2023-04-23T05:14:21.272Z,30.50
2023-04-23T05:15:21.290Z,30.45
2023-04-23T05:16:21.428Z,30.51
2023-04-23T05:17:21.490Z,30.50
2023-04-23T05:18:21.510Z,30.53
2023-04-23T05:19:21.564Z,30.47
2023-04-23T05:20:21.618Z,30.48
2023-04-23T05:21:21.609Z,30.47
2023-04-23T05:22:21.676Z,30.45
2023-04-23T05:23:21.737Z,30.43
2023-04-23T05:24:21.802Z,30.47
2023-04-23T05:25:21.893Z,30.45
2023-04-23T05:26:21.887Z,30.40
2023-04-23T05:27:21.921Z,30.43
2023-04-23T05:28:21.983Z,30.44
2023-04-23T05:29:22.045Z,30.48
2023-04-23T05:30:22.041Z,30.48
2023-04-23T05:31:22.142Z,30.52
2023-04-23T05:32:22.207Z,30.50
2023-04-23T05:33:22.232Z,30.49
2023-04-23T05:34:22.282Z,30.50
2023-04-23T05:35:22.275Z,30.53
2023-04-23T05:36:22.338Z,30.56
2023-04-23T05:37:22.413Z,30.57
2023-04-23T05:38:22.409Z,30.59
2023-04-23T05:39:22.442Z,30.57
2023-04-23T05:40:22.521Z,30.52
2023-04-23T05:41:22.579Z,30.53
2023-04-23T05:42:22.643Z,30.56
2023-04-23T05:43:22.644Z,30.56
2023-04-23T05:44:22.694Z,30.55
2023-04-23T05:45:22.707Z,30.60
2023-04-23T05:46:22.860Z,30.63
2023-04-23T05:47:22.786Z,30.63
2023-04-23T05:48:22.832Z,30.64
2023-04-23T05:49:22.895Z,30.65
2023-04-23T05:50:22.943Z,30.63
2023-04-23T05:51:22.948Z,30.62
2023-04-23T05:52:22.996Z,30.61
2023-04-23T05:53:23.006Z,30.56
2023-04-23T05:54:23.075Z,30.56
2023-04-23T05:55:23.081Z,30.53
2023-04-23T05:56:23.143Z,30.47
2023-04-23T05:57:23.139Z,30.50
2023-04-23T05:58:23.191Z,30.52
2023-04-23T05:59:23.253Z,30.54
2023-04-23T06:00:23.265Z,30.53
2023-04-23T06:01:23.267Z,30.55
2023-04-23T06:02:24.845Z,30.51
2023-04-23T06:03:23.514Z,30.54
2023-04-23T06:04:23.827Z,30.51
2023-04-23T06:05:23.669Z,30.53
2023-04-23T06:06:23.453Z,30.48
2023-04-23T06:07:23.467Z,30.48
2023-04-23T06:08:25.132Z,30.53
2023-04-23T06:09:23.524Z,30.56
2023-04-23T06:10:23.682Z,30.53
2023-04-23T06:11:23.581Z,30.57
2023-04-23T06:12:23.609Z,30.60
2023-04-23T06:13:23.654Z,30.64
2023-04-23T06:14:23.725Z,30.67
2023-04-23T06:15:23.714Z,30.70
2023-04-23T06:16:23.750Z,30.73
2023-04-23T06:17:23.720Z,30.75
2023-04-23T06:18:23.790Z,30.77
2023-04-23T06:19:24.211Z,30.75
2023-04-23T06:20:23.800Z,30.72
2023-04-23T06:21:23.881Z,30.75
2023-04-23T06:22:23.855Z,30.77
2023-04-23T06:23:23.868Z,30.81
2023-04-23T06:24:23.941Z,30.81
2023-04-23T06:25:23.946Z,30.83
2023-04-23T06:26:23.952Z,30.84
2023-04-23T06:27:23.962Z,30.86
2023-04-23T06:28:24.006Z,30.91
2023-04-23T06:29:24.017Z,30.99
2023-04-23T06:30:24.072Z,31.03
2023-04-23T06:31:24.097Z,31.05
2023-04-23T06:32:24.097Z,31.10
2023-04-23T06:33:24.093Z,31.14
2023-04-23T06:34:24.144Z,31.19
2023-04-23T06:35:24.173Z,31.25
2023-04-23T06:36:24.214Z,31.29
2023-04-23T06:37:24.227Z,31.27
2023-04-23T06:38:24.597Z,31.34
2023-04-23T06:39:24.597Z,31.30
2023-04-23T06:40:24.295Z,31.31
2023-04-23T06:41:24.311Z,31.34
2023-04-23T06:42:24.314Z,31.35
2023-04-23T06:43:25.208Z,31.34
2023-04-23T06:44:24.351Z,31.37
2023-04-23T06:45:24.384Z,31.34
2023-04-23T06:46:24.416Z,31.34
2023-04-23T06:47:24.399Z,31.34
2023-04-23T06:48:24.445Z,31.37
2023-04-23T06:49:24.558Z,31.33
2023-04-23T06:50:24.568Z,31.36
2023-04-23T06:51:24.465Z,31.32
2023-04-23T06:52:24.483Z,31.30
2023-04-23T06:53:24.486Z,31.32
2023-04-23T06:54:24.497Z,31.35
2023-04-23T06:55:24.508Z,31.36
2023-04-23T06:56:24.766Z,31.44
2023-04-23T06:57:24.566Z,31.45
2023-04-23T06:58:24.577Z,31.49
2023-04-23T06:59:24.577Z,31.54
2023-04-23T07:00:24.592Z,31.53
2023-04-23T07:01:24.633Z,31.50
2023-04-23T07:02:24.712Z,31.47
2023-04-23T07:03:24.678Z,31.44
2023-04-23T07:04:24.716Z,31.42
2023-04-23T07:05:24.760Z,31.44
2023-04-23T07:06:24.685Z,31.45
2023-04-23T07:07:25.300Z,31.42
2023-04-23T07:08:24.756Z,31.41
2023-04-23T07:09:24.767Z,31.38
2023-04-23T07:10:24.780Z,31.41
2023-04-23T07:11:24.766Z,31.36
2023-04-23T07:12:24.823Z,31.36
2023-04-23T07:13:24.779Z,31.34
2023-04-23T07:14:24.799Z,31.30
2023-04-23T07:15:24.805Z,31.30
2023-04-23T07:16:24.819Z,31.26
2023-04-23T07:17:24.840Z,31.25
2023-04-23T07:18:24.827Z,31.25
2023-04-23T07:19:24.836Z,31.24
2023-04-23T07:20:24.867Z,31.26
2023-04-23T07:21:24.842Z,31.23
2023-04-23T07:22:24.854Z,31.21
2023-04-23T07:23:24.960Z,31.22
2023-04-23T07:24:24.950Z,31.18
2023-04-23T07:25:24.819Z,31.16
2023-04-23T07:26:24.828Z,31.14
2023-04-23T07:27:24.848Z,31.11
2023-04-23T07:28:24.895Z,31.12
2023-04-23T07:29:24.909Z,31.13
2023-04-23T07:30:24.930Z,31.09
2023-04-23T07:31:24.896Z,31.08
2023-04-23T07:32:24.899Z,31.06
2023-04-23T07:33:24.871Z,31.05
2023-04-23T07:34:24.886Z,31.04
2023-04-23T07:35:24.885Z,31.06
2023-04-23T07:36:24.980Z,31.05
2023-04-23T07:37:24.924Z,31.09
2023-04-23T07:38:25.166Z,31.09
2023-04-23T07:39:24.979Z,31.11
2023-04-23T07:40:25.066Z,31.13
2023-04-23T07:41:24.952Z,31.10
2023-04-23T07:42:25.040Z,31.16
2023-04-23T07:43:25.056Z,31.16
2023-04-23T07:44:25.146Z,31.15
2023-04-23T07:45:25.110Z,31.10
2023-04-23T07:46:25.370Z,31.11
2023-04-23T07:47:25.235Z,31.12
2023-04-23T07:48:25.298Z,31.13
2023-04-23T07:49:25.343Z,31.15
2023-04-23T07:50:25.455Z,31.06
2023-04-23T07:51:25.504Z,31.05
2023-04-23T07:52:25.573Z,30.99
2023-04-23T07:53:25.629Z,30.95
2023-04-23T07:54:25.805Z,30.96
2023-04-23T07:55:25.685Z,30.87
2023-04-23T07:56:25.807Z,30.80
2023-04-23T07:57:25.818Z,30.72
2023-04-23T07:58:25.867Z,30.69
2023-04-23T07:59:25.982Z,30.66
2023-04-23T08:00:26.063Z,30.67
2023-04-23T08:01:26.090Z,30.64
2023-04-23T08:02:26.325Z,30.61
2023-04-23T08:03:26.442Z,30.57
2023-04-23T08:04:26.463Z,30.55
2023-04-23T08:05:26.330Z,30.51
2023-04-23T08:06:26.327Z,30.48
2023-04-23T08:07:26.395Z,30.47
2023-04-23T08:08:26.446Z,30.45
2023-04-23T08:09:26.493Z,30.40
2023-04-23T08:10:26.512Z,30.32
2023-04-23T08:11:26.626Z,30.29
2023-04-23T08:12:26.639Z,30.27
2023-04-23T08:13:26.683Z,30.24
2023-04-23T08:14:26.687Z,30.23
2023-04-23T08:15:26.727Z,30.20
2023-04-23T08:16:26.905Z,30.21
2023-04-23T08:17:26.835Z,30.20
2023-04-23T08:18:26.817Z,30.17
2023-04-23T08:19:26.884Z,30.18
2023-04-23T08:20:26.894Z,30.25
2023-04-23T08:21:26.927Z,30.20
2023-04-23T08:22:26.933Z,30.22
2023-04-23T08:23:27.013Z,30.23
2023-04-23T08:24:27.018Z,30.17
2023-04-23T08:25:27.058Z,30.14
2023-04-23T08:26:27.088Z,30.12
2023-04-23T08:27:27.138Z,30.06
2023-04-23T08:28:27.130Z,29.99
2023-04-23T08:29:27.162Z,29.99
2023-04-23T08:30:27.679Z,29.94
2023-04-23T08:31:27.574Z,29.76
2023-04-23T08:32:27.235Z,29.69
2023-04-23T08:33:27.281Z,29.65
2023-04-23T08:34:27.287Z,29.61
2023-04-23T08:35:27.272Z,29.53
2023-04-23T08:36:27.305Z,29.53
2023-04-23T08:37:31.442Z,29.52
2023-04-23T08:38:27.364Z,29.53
2023-04-23T08:39:27.361Z,29.52
2023-04-23T08:40:27.393Z,29.56
2023-04-23T08:41:27.344Z,29.52
2023-04-23T08:42:27.441Z,29.51
2023-04-23T08:43:27.438Z,29.47
2023-04-23T08:44:27.284Z,29.45
2023-04-23T08:45:27.297Z,29.43
2023-04-23T08:46:27.318Z,29.36
2023-04-23T08:47:27.325Z,29.27
2023-04-23T08:48:27.275Z,29.24
2023-04-23T08:49:27.297Z,29.18
2023-04-23T08:50:27.296Z,29.11
2023-04-23T08:51:27.251Z,29.11
2023-04-23T08:52:27.255Z,29.07
2023-04-23T08:53:27.255Z,29.11
2023-04-23T08:54:27.277Z,29.10
2023-04-23T08:55:27.226Z,29.07
2023-04-23T08:56:27.217Z,29.03
2023-04-23T08:57:27.236Z,29.00
2023-04-23T08:58:27.176Z,28.98
2023-04-23T08:59:27.264Z,28.95
2023-04-23T09:00:27.190Z,29.05
2023-04-23T09:01:27.200Z,28.97
2023-04-23T09:02:27.318Z,28.89
2023-04-23T09:03:27.252Z,28.87
2023-04-23T09:04:27.175Z,28.81
2023-04-23T09:05:27.216Z,28.80
2023-04-23T09:06:27.195Z,28.79
2023-04-23T09:07:27.200Z,28.76
2023-04-23T09:08:27.163Z,28.76
2023-04-23T09:09:27.154Z,28.71
2023-04-23T09:10:27.137Z,28.73
2023-04-23T09:11:27.162Z,28.72
2023-04-23T09:12:27.141Z,28.70
2023-04-23T09:13:27.184Z,28.78
2023-04-23T09:14:27.244Z,28.77
2023-04-23T09:15:27.290Z,28.80
2023-04-23T09:16:27.392Z,28.79
2023-04-23T09:17:27.483Z,28.75
2023-04-23T09:18:27.481Z,28.77
2023-04-23T09:19:27.499Z,28.83
2023-04-23T09:20:27.547Z,28.79
2023-04-23T09:21:27.649Z,28.85
2023-04-23T09:22:27.713Z,28.92
2023-04-23T09:23:27.756Z,28.94
2023-04-23T09:24:27.823Z,28.93
2023-04-23T09:25:27.884Z,28.98
2023-04-23T09:26:27.948Z,29.02
2023-04-23T09:27:27.998Z,29.04
2023-04-23T09:28:28.055Z,29.02
2023-04-23T09:29:28.227Z,29.05
2023-04-23T09:30:28.173Z,29.14
2023-04-23T09:31:28.314Z,29.12
2023-04-23T09:32:28.302Z,29.11
2023-04-23T09:33:28.390Z,29.07
2023-04-23T09:34:28.396Z,29.06
2023-04-23T09:35:28.453Z,29.13
2023-04-23T09:36:28.532Z,29.10
2023-04-23T09:37:28.562Z,29.19
2023-04-23T09:38:28.643Z,29.16
2023-04-23T09:39:28.680Z,29.12
2023-04-23T09:40:28.787Z,29.17
2023-04-23T09:41:28.760Z,29.25
2023-04-23T09:42:28.823Z,29.32
2023-04-23T09:43:28.871Z,29.27
2023-04-23T09:44:28.912Z,29.24
2023-04-23T09:45:28.938Z,29.30
2023-04-23T09:46:29.021Z,29.34
2023-04-23T09:47:29.085Z,29.32
2023-04-23T09:48:29.168Z,29.28
2023-04-23T09:49:29.127Z,29.28
2023-04-23T09:50:29.161Z,29.23
2023-04-23T09:51:29.199Z,29.22
2023-04-23T09:52:29.248Z,29.22
2023-04-23T09:53:29.300Z,29.18
2023-04-23T09:54:29.299Z,29.17
2023-04-23T09:55:29.368Z,29.18
2023-04-23T09:56:29.375Z,29.15
2023-04-23T09:57:29.431Z,29.25
2023-04-23T09:58:29.495Z,29.18
2023-04-23T09:59:46.121Z,29.12
2023-04-23T10:00:30.471Z,29.12
2023-04-23T10:01:29.518Z,29.11
2023-04-23T10:02:29.646Z,29.21
2023-04-23T10:03:29.621Z,29.18
2023-04-23T10:04:29.571Z,29.15
2023-04-23T10:05:34.257Z,29.13
2023-04-23T10:06:42.397Z,29.10
2023-04-23T10:07:30.453Z,29.11
2023-04-23T10:08:29.391Z,29.07
2023-04-23T10:09:29.359Z,29.08
2023-04-23T10:10:29.368Z,29.14
2023-04-23T10:11:29.365Z,29.12
2023-04-23T10:12:44.596Z,29.08
2023-04-23T10:13:30.364Z,29.09
2023-04-23T10:14:29.325Z,29.07
2023-04-23T10:15:29.362Z,29.06
2023-04-23T10:17:29.374Z,29.06
2023-04-23T10:18:29.352Z,29.11
2023-04-23T10:19:29.320Z,29.07
2023-04-23T10:20:29.327Z,29.02
2023-04-23T10:21:36.731Z,28.98
2023-04-23T10:22:30.304Z,29.02
2023-04-23T10:23:29.283Z,28.98
2023-04-23T10:24:29.289Z,29.01
2023-04-23T10:25:29.275Z,29.00
2023-04-23T10:26:29.262Z,28.96
2023-04-23T10:27:44.170Z,28.92
2023-04-23T10:28:30.246Z,28.93
2023-04-23T10:29:29.364Z,28.91
2023-04-23T10:30:29.244Z,28.88
2023-04-23T10:31:29.287Z,28.83
2023-04-23T10:32:29.294Z,28.80
2023-04-23T10:33:31.807Z,28.80
2023-04-23T10:34:29.242Z,28.77
2023-04-23T10:35:29.243Z,28.74
2023-04-23T10:36:29.257Z,28.73
2023-04-23T10:37:29.178Z,28.72
2023-04-23T10:38:29.251Z,28.67
2023-04-23T10:39:30.095Z,28.71
2023-04-23T10:40:29.156Z,28.72
2023-04-23T10:41:29.185Z,28.76
2023-04-23T10:42:29.182Z,28.77
2023-04-23T10:43:29.173Z,28.79
2023-04-23T10:44:50.135Z,28.78
2023-04-23T10:45:30.147Z,28.78
2023-04-23T10:46:29.200Z,28.77
2023-04-23T10:47:29.234Z,28.71
2023-04-23T10:48:29.122Z,28.68
2023-04-23T10:49:29.123Z,28.65
2023-04-23T10:50:29.138Z,28.67
2023-04-23T10:52:10.172Z,28.61
2023-04-23T10:52:30.104Z,28.53
2023-04-23T10:53:29.072Z,28.49
2023-04-23T10:54:29.081Z,28.51
2023-04-23T10:55:29.121Z,28.48
2023-04-23T10:56:29.069Z,28.46
2023-04-23T10:57:29.066Z,28.49
2023-04-23T10:58:29.084Z,28.51
2023-04-23T10:59:29.083Z,28.56
2023-04-23T11:00:29.092Z,28.55
2023-04-23T11:01:29.042Z,28.58
2023-04-23T11:02:29.286Z,28.62
2023-04-23T11:03:29.197Z,28.62
2023-04-23T11:04:29.378Z,28.59
2023-04-23T11:05:29.034Z,28.59
2023-04-23T11:06:29.032Z,28.53
2023-04-23T11:07:29.035Z,28.53
2023-04-23T11:08:29.087Z,28.47
2023-04-23T11:09:29.095Z,28.45
2023-04-23T11:10:29.159Z,28.43
2023-04-23T11:11:29.183Z,28.44
2023-04-23T11:12:29.166Z,28.37
2023-04-23T11:13:29.224Z,28.46
2023-04-23T11:14:29.239Z,28.38
2023-04-23T11:15:29.291Z,28.29
2023-04-23T11:16:29.307Z,28.25
2023-04-23T11:17:29.312Z,28.17
2023-04-23T11:18:29.333Z,28.11
2023-04-23T11:19:29.330Z,28.10
2023-04-23T11:20:29.398Z,28.04
2023-04-23T11:21:29.375Z,28.05
2023-04-23T11:22:29.391Z,28.05
2023-04-23T11:23:29.347Z,28.03
2023-04-23T11:24:29.364Z,28.00
2023-04-23T11:25:29.410Z,28.05
2023-04-23T11:26:29.378Z,28.01
2023-04-23T11:27:29.377Z,27.99
2023-04-23T11:28:29.378Z,27.95
2023-04-23T11:29:29.383Z,27.94
2023-04-23T11:30:29.457Z,27.95
2023-04-23T11:31:29.462Z,27.94
2023-04-23T11:32:29.483Z,27.92
2023-04-23T11:34:14.946Z,27.92
2023-04-23T11:35:14.886Z,27.92
2023-04-23T11:36:14.935Z,27.91
2023-04-23T11:37:14.906Z,27.94
2023-04-23T11:38:14.908Z,27.99
2023-04-23T11:39:14.911Z,28.00
2023-04-23T11:40:14.855Z,27.97
2023-04-23T11:41:14.874Z,27.89
2023-04-23T11:42:14.839Z,27.80
2023-04-23T11:43:14.847Z,27.87
2023-04-23T11:44:14.956Z,27.89
2023-04-23T11:45:14.867Z,27.89
2023-04-23T11:46:15.108Z,27.89
2023-04-23T11:47:14.921Z,27.91
2023-04-23T11:48:14.881Z,27.91
2023-04-23T11:49:14.830Z,27.93
2023-04-23T11:50:14.817Z,27.94
2023-04-23T11:51:14.783Z,27.95
2023-04-23T11:52:14.789Z,27.95
2023-04-23T11:53:14.810Z,27.94
2023-04-23T11:54:15.094Z,27.97
2023-04-23T11:55:14.748Z,27.94
2023-04-23T11:56:14.801Z,27.90
2023-04-23T11:57:14.777Z,27.83
2023-04-23T11:58:14.790Z,27.79
2023-04-23T11:59:14.746Z,27.77
2023-04-23T12:00:14.775Z,27.70
2023-04-23T12:01:14.760Z,27.72
2023-04-23T12:02:14.801Z,27.70
2023-04-23T12:03:14.818Z,27.62
2023-04-23T12:04:15.764Z,27.57
2023-04-23T12:05:14.739Z,27.55
2023-04-23T12:06:14.696Z,27.58
2023-04-23T12:07:25.913Z,27.56
2023-04-23T12:08:15.669Z,27.55
2023-04-23T12:09:14.647Z,27.54
2023-04-23T12:10:16.580Z,27.53
2023-04-23T12:11:14.684Z,27.46
2023-04-23T12:12:14.674Z,27.45
2023-04-23T12:13:14.634Z,27.31
2023-04-23T12:14:14.779Z,27.28
2023-04-23T12:15:15.167Z,27.30
2023-04-23T12:16:14.650Z,27.28
2023-04-23T12:17:14.622Z,27.19
2023-04-23T12:18:14.612Z,27.15
2023-04-23T12:19:14.666Z,27.17
2023-04-23T12:20:14.734Z,27.16
2023-04-23T12:21:14.721Z,27.10
2023-04-23T12:22:14.795Z,27.09
2023-04-23T12:23:14.828Z,27.09
2023-04-23T12:24:14.933Z,27.05
2023-04-23T12:25:14.872Z,26.99
2023-04-23T12:26:14.969Z,26.96
2023-04-23T12:27:14.941Z,26.88
2023-04-23T12:28:14.993Z,26.86
2023-04-23T12:29:15.000Z,26.77
2023-04-23T12:30:15.027Z,26.77
2023-04-23T12:31:15.219Z,26.79
2023-04-23T12:32:15.084Z,26.75
2023-04-23T12:33:15.127Z,26.73
2023-04-23T12:34:15.147Z,26.77
2023-04-23T12:35:15.612Z,26.77
2023-04-23T12:36:15.207Z,26.70
2023-04-23T12:37:15.254Z,26.66
2023-04-23T12:38:15.270Z,26.55
2023-04-23T12:39:15.360Z,26.44
2023-04-23T12:40:15.393Z,26.44
2023-04-23T12:41:15.378Z,26.43
2023-04-23T12:42:15.406Z,26.39
2023-04-23T12:43:15.484Z,26.39
2023-04-23T12:44:15.479Z,26.36
2023-04-23T12:45:15.516Z,26.37
2023-04-23T12:46:15.572Z,26.35
2023-04-23T12:47:15.565Z,26.27
2023-04-23T12:48:15.608Z,26.25
2023-04-23T12:49:15.553Z,26.19
2023-04-23T12:50:15.614Z,26.17
2023-04-23T12:51:15.604Z,26.17
2023-04-23T12:52:15.717Z,26.13
2023-04-23T12:53:15.680Z,26.10
2023-04-23T12:54:15.656Z,26.08